createdAt,value
2022-12-03T00:02:10.287Z,21.50
2022-12-03T00:04:36.655Z,20.85
2022-12-03T00:07:03.037Z,21.55
2022-12-03T00:09:29.400Z,21.80
2022-12-03T00:11:55.697Z,22.63
2022-12-03T00:14:22.025Z,24.90
2022-12-03T00:16:48.936Z,23.60
2022-12-03T00:19:15.389Z,24.63
2022-12-03T00:21:41.712Z,23.73
2022-12-03T00:24:08.507Z,26.52
2022-12-03T00:26:34.812Z,26.38
2022-12-03T00:29:01.117Z,27.10
2022-12-03T00:31:27.499Z,26.67
2022-12-03T00:33:53.954Z,25.52
2022-12-03T00:36:20.437Z,26.98
2022-12-03T00:38:46.764Z,26.45
2022-12-03T00:41:13.124Z,24.88
2022-12-03T00:43:39.462Z,25.88
2022-12-03T00:46:06.077Z,24.58
2022-12-03T00:48:32.441Z,27.20
2022-12-03T00:50:58.769Z,25.95
2022-12-03T00:53:25.163Z,26.33
2022-12-03T00:55:51.490Z,27.27
2022-12-03T00:58:18.316Z,27.08
2022-12-03T01:00:44.661Z,28.48
2022-12-03T01:03:11.119Z,27.52
2022-12-03T01:05:37.601Z,29.15
2022-12-03T01:08:04.095Z,29.05
2022-12-03T01:10:30.555Z,29.25
2022-12-03T01:12:56.853Z,28.67
2022-12-03T01:15:23.207Z,28.90
2022-12-03T01:17:49.583Z,28.67
2022-12-03T01:20:15.929Z,29.52
2022-12-03T01:22:42.243Z,31.48
2022-12-03T01:25:09.024Z,30.08
2022-12-03T01:27:35.334Z,30.73
2022-12-03T01:30:01.774Z,31.20
2022-12-03T01:32:28.122Z,30.17
2022-12-03T01:34:55.876Z,33.22
2022-12-03T01:37:24.957Z,32.28
2022-12-03T01:39:51.868Z,31.63
2022-12-03T01:42:22.078Z,31.20
2022-12-03T01:44:51.237Z,31.50
2022-12-03T01:47:20.245Z,30.70
2022-12-03T01:49:54.199Z,31.27
2022-12-03T01:52:24.773Z,33.35
2022-12-03T01:54:55.712Z,32.72
2022-12-03T01:57:27.200Z,31.90
2022-12-03T01:59:56.119Z,30.90
2022-12-03T02:02:31.122Z,30.83
2022-12-03T02:04:58.479Z,30.27
2022-12-03T02:07:30.475Z,30.48
2022-12-03T02:09:58.969Z,31.00
2022-12-03T02:12:31.969Z,30.58
2022-12-03T02:14:59.363Z,31.10
2022-12-03T02:17:26.750Z,31.52
2022-12-03T02:19:54.036Z,32.33
2022-12-03T02:22:32.372Z,30.65
2022-12-03T02:25:04.917Z,31.45
2022-12-03T02:27:31.248Z,32.10
2022-12-03T02:29:57.702Z,31.00
2022-12-03T02:32:24.175Z,31.77
2022-12-03T02:34:51.056Z,32.63
2022-12-03T02:37:22.398Z,32.03
2022-12-03T02:39:53.657Z,32.70
2022-12-03T02:42:20.592Z,32.05
2022-12-03T02:44:46.938Z,32.53
2022-12-03T02:47:13.405Z,34.80
2022-12-03T02:49:40.366Z,34.40
2022-12-03T02:52:06.809Z,32.53
2022-12-03T02:54:33.247Z,34.15
2022-12-03T02:56:59.804Z,34.22
2022-12-03T02:59:26.166Z,33.33
2022-12-03T03:01:52.659Z,29.88
2022-12-03T03:04:19.249Z,31.23
2022-12-03T03:06:45.736Z,29.92
2022-12-03T03:09:12.496Z,31.33
2022-12-03T03:11:38.927Z,30.85
2022-12-03T03:14:05.360Z,30.98
2022-12-03T03:16:33.797Z,29.55
2022-12-03T03:19:01.057Z,27.67
2022-12-03T03:21:27.761Z,28.83
2022-12-03T03:23:54.165Z,29.77
2022-12-03T03:26:20.524Z,29.05
2022-12-03T03:28:49.805Z,26.88
2022-12-03T03:31:19.377Z,28.10
2022-12-03T03:33:48.013Z,28.92
2022-12-03T03:36:15.155Z,27.77
2022-12-03T03:38:41.724Z,26.77
2022-12-03T03:41:09.737Z,28.90
2022-12-03T03:43:39.807Z,29.25
2022-12-03T03:46:07.372Z,27.75
2022-12-03T03:48:35.181Z,27.27
2022-12-03T03:51:03.157Z,29.20
2022-12-03T03:53:30.779Z,26.35
2022-12-03T03:55:57.202Z,26.80
2022-12-03T03:58:23.707Z,29.42
2022-12-03T04:00:50.105Z,28.67
2022-12-03T04:03:16.447Z,28.98
2022-12-03T04:05:42.877Z,26.88
2022-12-03T04:08:09.306Z,27.50
2022-12-03T04:10:35.687Z,26.73
2022-12-03T04:13:02.278Z,28.52
2022-12-03T04:15:29.188Z,27.48
2022-12-03T04:17:55.811Z,28.73
2022-12-03T04:20:22.162Z,28.88
2022-12-03T04:22:48.479Z,27.15
2022-12-03T04:25:14.839Z,28.35
2022-12-03T04:27:41.169Z,28.50
2022-12-03T04:30:08.165Z,27.83
2022-12-03T04:32:34.510Z,28.45
2022-12-03T04:35:01.031Z,29.20
2022-12-03T04:37:27.510Z,30.90
2022-12-03T04:39:53.955Z,29.85
2022-12-03T04:42:20.295Z,30.20
2022-12-03T04:44:46.628Z,30.42
2022-12-03T04:47:19.276Z,30.45
2022-12-03T04:49:48.404Z,30.48
2022-12-03T04:52:17.070Z,28.95
2022-12-03T04:54:43.930Z,29.90
2022-12-03T04:57:11.318Z,27.48
2022-12-03T04:59:38.186Z,27.67
2022-12-03T05:02:05.693Z,27.75
2022-12-03T05:04:32.181Z,26.63
2022-12-03T05:06:58.502Z,27.58
2022-12-03T05:09:24.849Z,28.17
2022-12-03T05:11:51.224Z,26.83
2022-12-03T05:14:17.566Z,27.55
2022-12-03T05:16:43.969Z,26.75
2022-12-03T05:19:10.408Z,27.88
2022-12-03T05:21:36.791Z,24.30
2022-12-03T05:24:03.460Z,26.52
2022-12-03T05:26:29.801Z,26.50
2022-12-03T05:28:56.135Z,26.88
2022-12-03T05:31:22.632Z,26.75
2022-12-03T05:33:49.012Z,28.10
2022-12-03T05:36:15.393Z,27.00
2022-12-03T05:38:41.775Z,27.90
2022-12-03T05:41:08.094Z,27.10
2022-12-03T05:43:34.438Z,26.30
2022-12-03T05:46:00.798Z,26.67
2022-12-03T05:48:27.145Z,28.08
2022-12-03T05:50:53.461Z,28.98
2022-12-03T05:53:19.799Z,28.75
2022-12-03T05:55:46.120Z,29.60
2022-12-03T05:58:12.455Z,31.95
2022-12-03T06:00:42.645Z,31.02
2022-12-03T06:03:09.551Z,32.45
2022-12-03T06:05:36.053Z,32.97
2022-12-03T06:08:02.531Z,34.28
2022-12-03T06:10:29.645Z,32.45
2022-12-03T06:12:56.194Z,35.70
2022-12-03T06:15:23.353Z,33.90
2022-12-03T06:17:49.706Z,34.22
2022-12-03T06:20:19.066Z,36.17
2022-12-03T06:22:45.651Z,35.95
2022-12-03T06:25:13.049Z,35.80
2022-12-03T06:27:39.410Z,36.03
2022-12-03T06:30:06.994Z,34.92
2022-12-03T06:32:33.306Z,33.40
2022-12-03T06:34:59.677Z,33.28
2022-12-03T06:37:26.035Z,35.80
2022-12-03T06:39:52.384Z,35.67
2022-12-03T06:42:18.757Z,33.65
2022-12-03T06:44:45.088Z,35.75
2022-12-03T06:47:11.423Z,33.67
2022-12-03T06:49:37.769Z,36.20
2022-12-03T06:52:04.213Z,35.25
2022-12-03T06:54:30.532Z,32.30
2022-12-03T06:56:56.882Z,32.35
2022-12-03T06:59:23.204Z,32.53
2022-12-03T07:01:49.554Z,31.40
2022-12-03T07:04:15.921Z,29.17
2022-12-03T07:06:42.343Z,28.35
2022-12-03T07:09:08.702Z,28.27
2022-12-03T07:11:35.046Z,28.05
2022-12-03T07:14:05.393Z,27.08
2022-12-03T07:16:32.270Z,27.27
2022-12-03T07:18:58.664Z,28.90
2022-12-03T07:21:24.977Z,27.52
2022-12-03T07:23:51.362Z,27.35
2022-12-03T07:26:17.661Z,24.58
2022-12-03T07:28:43.976Z,25.83
2022-12-03T07:31:10.333Z,26.80
2022-12-03T07:33:36.728Z,26.67
2022-12-03T07:36:03.153Z,26.45
2022-12-03T07:38:29.468Z,24.48
2022-12-03T07:40:55.788Z,24.35
2022-12-03T07:43:22.129Z,24.42
2022-12-03T07:45:48.653Z,25.13
2022-12-03T07:48:14.988Z,23.15
2022-12-03T07:50:41.357Z,23.63
2022-12-03T07:53:07.676Z,24.02
2022-12-03T07:55:33.997Z,23.67
2022-12-03T07:58:00.329Z,24.38
2022-12-03T08:00:26.785Z,24.95
2022-12-03T08:02:53.166Z,25.13
2022-12-03T08:05:19.518Z,25.38
2022-12-03T08:07:45.929Z,24.80
2022-12-03T08:10:12.307Z,25.40
2022-12-03T08:12:39.728Z,26.58
2022-12-03T08:15:12.536Z,25.50
2022-12-03T08:17:39.256Z,25.95
2022-12-03T08:20:24.351Z,24.27
2022-12-03T08:25:29.019Z,25.98
2022-12-03T08:28:15.588Z,27.88
2022-12-03T08:30:44.406Z,26.20
2022-12-03T08:33:20.269Z,26.88
2022-12-03T08:35:50.040Z,27.20
2022-12-03T08:38:18.414Z,27.10
2022-12-03T08:40:47.621Z,26.98
2022-12-03T08:43:24.286Z,27.83
2022-12-03T08:45:52.847Z,30.98
2022-12-03T08:48:22.972Z,27.17
2022-12-03T08:50:49.350Z,26.70
2022-12-03T08:53:30.832Z,29.35
2022-12-03T08:55:59.807Z,29.88
2022-12-03T08:58:41.251Z,31.02
2022-12-03T09:01:10.721Z,29.48
2022-12-03T09:04:04.299Z,28.67
2022-12-03T09:06:30.718Z,29.83
2022-12-03T09:08:57.058Z,29.65
2022-12-03T09:11:23.397Z,28.67
2022-12-03T09:13:49.703Z,29.67
2022-12-03T09:16:16.069Z,28.58
2022-12-03T09:18:42.427Z,29.55
2022-12-03T09:21:08.743Z,30.17
2022-12-03T09:23:35.047Z,31.05
2022-12-03T09:26:01.374Z,29.92
2022-12-03T09:28:27.676Z,33.17
2022-12-03T09:30:54.009Z,31.25
2022-12-03T09:33:20.309Z,29.33
2022-12-03T09:35:46.666Z,30.60
2022-12-03T09:38:12.985Z,30.65
2022-12-03T09:40:39.334Z,31.88
2022-12-03T09:43:05.905Z,29.58
2022-12-03T09:45:32.317Z,27.63
2022-12-03T09:48:01.689Z,29.35
2022-12-03T09:50:28.052Z,29.85
2022-12-03T09:52:57.698Z,28.98
2022-12-03T09:55:27.682Z,30.10
2022-12-03T09:57:55.911Z,30.95
2022-12-03T10:00:26.158Z,30.10
2022-12-03T10:02:56.407Z,30.23
2022-12-03T10:05:23.692Z,30.02
2022-12-03T10:07:51.999Z,30.65
2022-12-03T10:10:21.727Z,30.38
2022-12-03T10:12:48.930Z,30.20
2022-12-03T10:15:18.933Z,29.95
2022-12-03T10:17:50.696Z,28.63
2022-12-03T10:20:19.968Z,29.65
2022-12-03T10:22:46.365Z,29.10
2022-12-03T10:25:15.445Z,29.38
2022-12-03T10:27:42.550Z,29.33
2022-12-03T10:30:18.784Z,30.33
2022-12-03T10:32:46.387Z,30.85
2022-12-03T10:35:22.028Z,30.05
2022-12-03T10:38:01.770Z,28.30
2022-12-03T10:40:33.453Z,28.60
2022-12-03T10:43:18.125Z,29.70
2022-12-03T10:46:04.417Z,28.33
2022-12-03T10:48:31.253Z,30.33
2022-12-03T10:51:18.093Z,28.60
2022-12-03T10:53:44.492Z,27.60
2022-12-03T10:56:17.659Z,28.83
2022-12-03T10:58:44.029Z,27.77
2022-12-03T11:01:17.378Z,29.70
2022-12-03T11:03:44.451Z,27.55
2022-12-03T11:06:16.470Z,27.27
2022-12-03T11:08:45.514Z,28.42
2022-12-03T11:11:20.032Z,27.50
2022-12-03T11:13:50.659Z,28.90
2022-12-03T11:16:38.848Z,29.58
2022-12-03T11:19:45.602Z,30.05
2022-12-03T11:22:11.864Z,26.90
2022-12-03T11:24:41.004Z,28.75
2022-12-03T11:27:10.362Z,29.70
2022-12-03T11:30:00.837Z,28.38
2022-12-03T11:32:38.994Z,27.75
2022-12-03T11:35:12.748Z,27.60
2022-12-03T11:37:39.261Z,27.63
2022-12-03T11:40:17.537Z,26.60
2022-12-03T11:42:46.050Z,26.33
2022-12-03T11:45:22.778Z,26.88
2022-12-03T11:48:14.070Z,25.38
2022-12-03T11:50:50.710Z,27.80
2022-12-03T11:53:22.060Z,26.60
2022-12-03T11:55:51.972Z,27.98
2022-12-03T11:58:29.986Z,29.42
2022-12-03T12:00:58.497Z,29.60
2022-12-03T12:03:33.192Z,29.45
2022-12-03T12:06:11.156Z,44.03
2022-12-03T12:08:59.384Z,29.67
2022-12-03T12:11:26.963Z,29.90
2022-12-03T12:13:56.752Z,30.80
2022-12-03T12:16:45.939Z,30.98
2022-12-03T12:19:34.051Z,29.92
2022-12-03T12:22:23.565Z,31.52
2022-12-03T12:24:52.532Z,31.20
2022-12-03T12:27:20.976Z,30.73
2022-12-03T12:30:02.099Z,31.77
2022-12-03T12:32:33.822Z,32.95
2022-12-03T12:35:12.976Z,31.33
2022-12-03T12:37:50.117Z,32.83
2022-12-03T12:40:26.870Z,31.88
2022-12-03T12:43:13.526Z,32.78
2022-12-03T12:45:43.747Z,34.13
2022-12-03T12:48:10.115Z,32.45
2022-12-03T12:50:38.521Z,34.72
2022-12-03T12:53:10.970Z,35.67
2022-12-03T12:55:40.751Z,32.80
2022-12-03T12:58:17.590Z,34.80
2022-12-03T13:00:50.945Z,33.97
2022-12-03T13:03:20.054Z,34.85
2022-12-03T13:05:48.682Z,36.90
2022-12-03T13:08:37.219Z,41.25
2022-12-03T13:11:03.725Z,41.15
2022-12-03T13:13:29.997Z,36.40
2022-12-03T13:16:22.862Z,36.67
2022-12-03T13:19:02.112Z,36.53
2022-12-03T13:21:40.156Z,36.40
2022-12-03T13:24:35.385Z,35.85
2022-12-03T13:27:13.666Z,36.95
2022-12-03T13:29:40.096Z,37.00
2022-12-03T13:32:35.639Z,35.17
2022-12-03T13:37:48.591Z,32.53
2022-12-03T13:40:28.577Z,35.28
2022-12-03T13:42:54.926Z,35.00
2022-12-03T13:45:27.084Z,36.95
2022-12-03T13:47:56.418Z,35.08
2022-12-03T13:50:28.523Z,38.00
2022-12-03T13:52:55.149Z,34.83
2022-12-03T13:55:31.771Z,36.10
2022-12-03T13:57:58.150Z,38.03
2022-12-03T14:00:24.506Z,36.13
2022-12-03T14:02:50.933Z,35.40
2022-12-03T14:05:17.341Z,35.00
2022-12-03T14:07:43.848Z,34.72
2022-12-03T14:10:12.012Z,35.92
2022-12-03T14:12:38.705Z,35.42
2022-12-03T14:15:06.413Z,35.20
2022-12-03T14:17:32.907Z,36.47
2022-12-03T14:20:00.184Z,36.80
2022-12-03T14:22:26.774Z,36.95
2022-12-03T14:24:54.011Z,37.95
2022-12-03T14:27:21.282Z,39.20
2022-12-03T14:29:47.762Z,37.90
2022-12-03T14:32:14.138Z,38.00
2022-12-03T14:34:40.969Z,38.80
2022-12-03T14:37:07.725Z,38.60
2022-12-03T14:39:34.082Z,39.88
2022-12-03T14:42:00.433Z,39.40
2022-12-03T14:44:26.771Z,40.70
2022-12-03T14:46:57.029Z,38.72
2022-12-03T14:49:23.806Z,38.78
2022-12-03T14:51:50.136Z,40.58
2022-12-03T14:54:16.510Z,38.72
2022-12-03T14:56:42.909Z,40.28
2022-12-03T14:59:09.210Z,39.20
2022-12-03T15:01:35.589Z,41.30
2022-12-03T15:04:01.966Z,40.20
2022-12-03T15:06:28.386Z,38.92
2022-12-03T15:08:54.972Z,39.03
2022-12-03T15:11:24.610Z,40.95
2022-12-03T15:13:51.034Z,39.33
2022-12-03T15:16:17.510Z,37.63
2022-12-03T15:18:43.876Z,37.22
2022-12-03T15:21:10.271Z,36.85
2022-12-03T15:23:36.637Z,38.13
2022-12-03T15:26:03.541Z,37.55
2022-12-03T15:28:29.879Z,39.53
2022-12-03T15:30:56.374Z,38.28
2022-12-03T15:33:22.721Z,41.05
2022-12-03T15:35:49.528Z,39.95
2022-12-03T15:38:15.799Z,39.35
2022-12-03T15:40:42.130Z,38.85
2022-12-03T15:43:09.226Z,38.33
2022-12-03T15:45:36.220Z,39.78
2022-12-03T15:48:02.691Z,40.13
2022-12-03T15:50:29.109Z,40.08
2022-12-03T15:52:55.693Z,43.75
2022-12-03T15:55:22.195Z,40.13
2022-12-03T15:57:48.672Z,46.13
2022-12-03T16:00:16.051Z,47.13
2022-12-03T16:02:47.532Z,47.38
2022-12-03T16:05:17.396Z,45.83
2022-12-03T16:07:43.840Z,44.13
2022-12-03T16:10:11.233Z,43.25
2022-12-03T16:12:37.571Z,41.28
2022-12-03T16:15:04.279Z,39.78
2022-12-03T16:17:30.651Z,40.20
2022-12-03T16:19:57.166Z,42.13
2022-12-03T16:22:23.609Z,43.28
2022-12-03T16:24:49.927Z,42.47
2022-12-03T16:27:16.262Z,41.88
2022-12-03T16:29:42.583Z,40.22
2022-12-03T16:32:08.920Z,43.80
2022-12-03T16:34:35.226Z,43.13
2022-12-03T16:37:01.546Z,42.50
2022-12-03T16:39:27.874Z,42.05
2022-12-03T16:41:54.176Z,44.53
2022-12-03T16:44:20.500Z,42.78
2022-12-03T16:46:47.054Z,41.25
2022-12-03T16:49:13.455Z,42.15
2022-12-03T16:51:39.844Z,44.05
2022-12-03T16:54:06.164Z,44.13
2022-12-03T16:56:32.484Z,43.30
2022-12-03T16:58:58.801Z,43.33
2022-12-03T17:01:25.166Z,43.33
2022-12-03T17:03:51.507Z,43.88
2022-12-03T17:06:17.865Z,44.72
2022-12-03T17:08:49.037Z,45.28
2022-12-03T17:11:16.128Z,45.28
2022-12-03T17:13:42.522Z,45.80
2022-12-03T17:16:09.068Z,44.28
2022-12-03T17:18:35.440Z,43.95
2022-12-03T17:21:01.817Z,45.15
2022-12-03T17:23:28.162Z,45.67
2022-12-03T17:25:54.658Z,47.38
2022-12-03T17:28:21.010Z,46.95
2022-12-03T17:30:47.391Z,47.00
2022-12-03T17:33:13.808Z,51.95
2022-12-03T17:35:40.175Z,46.20
2022-12-03T17:38:06.488Z,49.17
2022-12-03T17:40:32.851Z,49.72
2022-12-03T17:42:59.159Z,51.45
2022-12-03T17:45:25.502Z,48.67
2022-12-03T17:47:51.812Z,50.05
2022-12-03T17:50:18.209Z,47.25
2022-12-03T17:52:44.554Z,46.15
2022-12-03T17:55:14.567Z,46.70
2022-12-03T17:57:47.871Z,48.67
2022-12-03T18:00:14.421Z,46.85
2022-12-03T18:02:40.744Z,47.63
2022-12-03T18:05:07.326Z,48.17
2022-12-03T18:07:33.935Z,48.45
2022-12-03T18:10:00.330Z,47.53
2022-12-03T18:12:26.868Z,49.25
2022-12-03T18:14:53.221Z,47.58
2022-12-03T18:17:19.537Z,48.80
2022-12-03T18:19:45.909Z,49.70
2022-12-03T18:22:12.292Z,48.45
2022-12-03T18:24:38.769Z,50.17
2022-12-03T18:27:05.120Z,48.47
2022-12-03T18:29:31.771Z,48.70
2022-12-03T18:31:58.341Z,49.97
2022-12-03T18:34:24.703Z,49.75
2022-12-03T18:36:51.218Z,51.78
2022-12-03T18:39:27.229Z,47.00
2022-12-03T18:41:53.886Z,47.42
2022-12-03T18:44:20.556Z,48.58
2022-12-03T18:46:54.922Z,51.15
2022-12-03T18:49:21.867Z,49.28
2022-12-03T18:51:48.581Z,49.20
2022-12-03T18:54:15.495Z,48.67
2022-12-03T18:56:41.893Z,46.95
2022-12-03T18:59:08.867Z,49.78
2022-12-03T19:01:36.107Z,49.05
2022-12-03T19:04:02.990Z,48.65
2022-12-03T19:06:29.418Z,50.47
2022-12-03T19:08:56.354Z,49.38
2022-12-03T19:11:22.877Z,55.28
2022-12-03T19:13:49.193Z,50.50
2022-12-03T19:16:15.594Z,48.25
2022-12-03T19:18:42.403Z,52.00
2022-12-03T19:21:11.680Z,52.05
2022-12-03T19:23:39.132Z,51.85
2022-12-03T19:26:09.251Z,50.35
2022-12-03T19:28:36.113Z,51.70
2022-12-03T19:31:06.144Z,49.70
2022-12-03T19:33:33.322Z,51.45
2022-12-03T19:36:00.592Z,50.47
2022-12-03T19:38:28.702Z,48.10
2022-12-03T19:41:05.915Z,50.38
2022-12-03T19:43:33.644Z,50.03
2022-12-03T19:46:08.379Z,48.53
2022-12-03T19:51:19.742Z,48.40
2022-12-03T19:53:48.270Z,50.08
2022-12-03T19:56:17.346Z,49.45
2022-12-03T19:58:45.577Z,48.63
2022-12-03T20:01:17.653Z,51.65
2022-12-03T20:03:49.755Z,53.42
2022-12-03T20:06:18.288Z,51.38
2022-12-03T20:08:45.490Z,53.15
2022-12-03T20:11:17.436Z,49.22
2022-12-03T20:13:44.547Z,49.45
2022-12-03T20:16:13.872Z,51.58
2022-12-03T20:18:41.790Z,54.42
2022-12-03T20:21:09.867Z,55.05
2022-12-03T20:23:36.624Z,50.92
2022-12-03T20:26:07.273Z,52.20
2022-12-03T20:28:33.583Z,52.30
2022-12-03T20:31:17.872Z,49.63
2022-12-03T20:33:47.541Z,40.40
2022-12-03T20:36:16.303Z,51.50
2022-12-03T20:38:42.957Z,50.00
2022-12-03T20:41:12.590Z,50.63
2022-12-03T20:43:39.136Z,52.13
2022-12-03T20:46:19.868Z,48.63
2022-12-03T20:48:46.814Z,47.63
2022-12-03T20:51:18.792Z,50.90
2022-12-03T20:53:46.309Z,51.15
2022-12-03T20:56:28.017Z,50.17
2022-12-03T20:58:54.364Z,50.63
2022-12-03T21:01:23.830Z,48.85
2022-12-03T21:03:52.492Z,49.47
2022-12-03T21:06:19.656Z,49.33
2022-12-03T21:08:46.288Z,49.28
2022-12-03T21:11:16.320Z,46.85
2022-12-03T21:13:43.110Z,48.75
2022-12-03T21:16:12.538Z,46.92
2022-12-03T21:18:39.073Z,47.78
2022-12-03T21:21:06.977Z,50.03
2022-12-03T21:23:33.890Z,48.60
2022-12-03T21:26:09.488Z,47.25
2022-12-03T21:28:38.211Z,48.95
2022-12-03T21:31:07.558Z,48.10
2022-12-03T21:33:34.984Z,49.92
2022-12-03T21:36:02.081Z,49.08
2022-12-03T21:38:29.424Z,49.55
2022-12-03T21:40:56.775Z,47.22
2022-12-03T21:43:24.149Z,47.70
2022-12-03T21:45:50.984Z,46.08
2022-12-03T21:48:17.620Z,47.05
2022-12-03T21:50:45.311Z,45.45
2022-12-03T21:53:12.751Z,45.05
2022-12-03T21:55:40.511Z,45.25
2022-12-03T21:58:08.167Z,43.92
2022-12-03T22:00:34.660Z,44.45
2022-12-03T22:03:01.086Z,45.45
2022-12-03T22:05:27.489Z,46.13
2022-12-03T22:07:53.832Z,46.22
2022-12-03T22:10:20.362Z,44.05
2022-12-03T22:12:46.738Z,43.08
2022-12-03T22:15:18.466Z,41.88
2022-12-03T22:17:45.380Z,42.58
2022-12-03T22:20:12.163Z,42.42
2022-12-03T22:22:38.460Z,42.70
2022-12-03T22:25:05.003Z,43.67
2022-12-03T22:27:31.370Z,42.17
2022-12-03T22:29:57.851Z,43.35
2022-12-03T22:32:24.245Z,43.75
2022-12-03T22:34:50.598Z,42.10
2022-12-03T22:37:17.011Z,44.25
2022-12-03T22:39:43.370Z,41.90
2022-12-03T22:42:09.857Z,43.50
2022-12-03T22:44:37.312Z,41.78
2022-12-03T22:47:03.949Z,43.20
2022-12-03T22:49:30.318Z,44.40
2022-12-03T22:51:56.660Z,41.35
2022-12-03T22:54:24.289Z,43.72
2022-12-03T22:56:50.989Z,44.63
2022-12-03T22:59:17.385Z,42.08
2022-12-03T23:01:43.724Z,42.50
2022-12-03T23:04:11.017Z,43.13
2022-12-03T23:06:37.683Z,43.30
2022-12-03T23:09:05.956Z,44.72
2022-12-03T23:11:32.310Z,42.70
2022-12-03T23:13:58.741Z,44.28
2022-12-03T23:16:28.067Z,41.83
2022-12-03T23:18:57.867Z,40.25
2022-12-03T23:21:29.923Z,41.40
2022-12-03T23:24:01.075Z,40.70
2022-12-03T23:26:28.423Z,40.97
2022-12-03T23:28:55.129Z,41.50
2022-12-03T23:31:26.354Z,41.88
2022-12-03T23:33:53.610Z,41.85
2022-12-03T23:36:21.252Z,39.88
2022-12-03T23:38:47.598Z,42.33
2022-12-03T23:41:16.653Z,40.78
2022-12-03T23:43:43.562Z,40.63
2022-12-03T23:46:13.347Z,40.95
2022-12-03T23:48:39.829Z,40.03
2022-12-03T23:51:12.039Z,40.17
2022-12-03T23:53:39.082Z,39.95
2022-12-03T23:56:11.118Z,41.80
2022-12-03T23:58:37.780Z,40.20
